sensor_id;sensor_type;location;lat;lon;timestamp;P1;durP1;ratioP1;P2;durP2;ratioP2
2320;SDS011;15376;48.540;9.268;2022-11-15T00:00:29;11.27;;;10.07;;
2320;SDS011;15376;48.540;9.268;2022-11-15T00:02:54;11.83;;;10.30;;
2320;SDS011;15376;48.540;9.268;2022-11-15T00:05:20;13.73;;;10.57;;
2320;SDS011;15376;48.540;9.268;2022-11-15T00:07:45;14.67;;;9.43;;
2320;SDS011;15376;48.540;9.268;2022-11-15T00:10:10;14.10;;;12.23;;
2320;SDS011;15376;48.540;9.268;2022-11-15T00:12:36;13.00;;;10.90;;
2320;SDS011;15376;48.540;9.268;2022-11-15T00:15:01;12.80;;;10.03;;
2320;SDS011;15376;48.540;9.268;2022-11-15T00:17:26;12.70;;;11.10;;
2320;SDS011;15376;48.540;9.268;2022-11-15T00:19:52;14.47;;;11.77;;
2320;SDS011;15376;48.540;9.268;2022-11-15T00:22:17;13.93;;;11.63;;
2320;SDS011;15376;48.540;9.268;2022-11-15T00:24:43;14.97;;;11.60;;
2320;SDS011;15376;48.540;9.268;2022-11-15T00:27:08;15.20;;;11.83;;
2320;SDS011;15376;48.540;9.268;2022-11-15T00:29:33;14.83;;;12.23;;
2320;SDS011;15376;48.540;9.268;2022-11-15T00:31:59;14.43;;;12.00;;
2320;SDS011;15376;48.540;9.268;2022-11-15T00:34:24;13.70;;;12.37;;
2320;SDS011;15376;48.540;9.268;2022-11-15T00:36:49;14.23;;;12.63;;
2320;SDS011;15376;48.540;9.268;2022-11-15T00:39:15;13.40;;;12.00;;
2320;SDS011;15376;48.540;9.268;2022-11-15T00:41:40;12.73;;;10.17;;
2320;SDS011;15376;48.540;9.268;2022-11-15T00:44:05;11.37;;;10.03;;
2320;SDS011;15376;48.540;9.268;2022-11-15T00:46:31;13.40;;;10.13;;
2320;SDS011;15376;48.540;9.268;2022-11-15T00:48:56;12.20;;;10.40;;
2320;SDS011;15376;48.540;9.268;2022-11-15T00:51:21;12.20;;;9.80;;
2320;SDS011;15376;48.540;9.268;2022-11-15T00:53:47;12.27;;;10.40;;
2320;SDS011;15376;48.540;9.268;2022-11-15T00:56:12;13.20;;;10.30;;
2320;SDS011;15376;48.540;9.268;2022-11-15T00:58:37;10.10;;;9.17;;
2320;SDS011;15376;48.540;9.268;2022-11-15T01:01:10;11.30;;;10.20;;
2320;SDS011;15376;48.540;9.268;2022-11-15T01:03:37;12.60;;;10.63;;
2320;SDS011;15376;48.540;9.268;2022-11-15T01:06:03;11.50;;;10.37;;
2320;SDS011;15376;48.540;9.268;2022-11-15T01:08:29;12.73;;;11.43;;
2320;SDS011;15376;48.540;9.268;2022-11-15T01:10:59;11.73;;;9.57;;
2320;SDS011;15376;48.540;9.268;2022-11-15T01:13:25;9.00;;;8.20;;
2320;SDS011;15376;48.540;9.268;2022-11-15T01:15:51;8.87;;;8.00;;
2320;SDS011;15376;48.540;9.268;2022-11-15T01:18:16;9.80;;;7.57;;
2320;SDS011;15376;48.540;9.268;2022-11-15T01:20:41;8.30;;;7.47;;
2320;SDS011;15376;48.540;9.268;2022-11-15T01:23:07;12.13;;;9.30;;
2320;SDS011;15376;48.540;9.268;2022-11-15T01:25:32;8.50;;;7.67;;
2320;SDS011;15376;48.540;9.268;2022-11-15T01:27:58;17.70;;;7.40;;
2320;SDS011;15376;48.540;9.268;2022-11-15T01:30:23;9.70;;;7.70;;
2320;SDS011;15376;48.540;9.268;2022-11-15T01:32:48;9.37;;;8.17;;
2320;SDS011;15376;48.540;9.268;2022-11-15T01:35:14;8.03;;;7.13;;
2320;SDS011;15376;48.540;9.268;2022-11-15T01:37:39;9.17;;;7.80;;
2320;SDS011;15376;48.540;9.268;2022-11-15T01:40:04;8.23;;;7.43;;
2320;SDS011;15376;48.540;9.268;2022-11-15T01:42:30;9.90;;;8.43;;
2320;SDS011;15376;48.540;9.268;2022-11-15T01:44:55;9.00;;;7.17;;
2320;SDS011;15376;48.540;9.268;2022-11-15T01:47:22;8.77;;;7.27;;
2320;SDS011;15376;48.540;9.268;2022-11-15T01:49:59;9.37;;;8.33;;
2320;SDS011;15376;48.540;9.268;2022-11-15T01:52:28;8.67;;;7.87;;
2320;SDS011;15376;48.540;9.268;2022-11-15T01:55:02;8.50;;;7.70;;
2320;SDS011;15376;48.540;9.268;2022-11-15T01:57:28;9.77;;;8.53;;
2320;SDS011;15376;48.540;9.268;2022-11-15T01:59:54;9.30;;;7.70;;
2320;SDS011;15376;48.540;9.268;2022-11-15T02:02:20;10.70;;;8.37;;
2320;SDS011;15376;48.540;9.268;2022-11-15T02:04:46;9.10;;;8.30;;
2320;SDS011;15376;48.540;9.268;2022-11-15T02:07:13;10.70;;;8.43;;
2320;SDS011;15376;48.540;9.268;2022-11-15T02:09:41;9.10;;;8.13;;
2320;SDS011;15376;48.540;9.268;2022-11-15T02:12:08;10.70;;;8.87;;
2320;SDS011;15376;48.540;9.268;2022-11-15T02:14:35;10.33;;;8.70;;
2320;SDS011;15376;48.540;9.268;2022-11-15T02:17:10;10.07;;;9.00;;
2320;SDS011;15376;48.540;9.268;2022-11-15T02:30:24;10.33;;;8.93;;
2320;SDS011;15376;48.540;9.268;2022-11-15T02:32:58;10.27;;;9.23;;
2320;SDS011;15376;48.540;9.268;2022-11-15T02:40:56;9.63;;;8.17;;
2320;SDS011;15376;48.540;9.268;2022-11-15T02:43:47;10.97;;;8.73;;
2320;SDS011;15376;48.540;9.268;2022-11-15T02:46:45;7.20;;;6.50;;
2320;SDS011;15376;48.540;9.268;2022-11-15T02:49:34;8.50;;;7.70;;
2320;SDS011;15376;48.540;9.268;2022-11-15T02:52:00;10.37;;;7.07;;
2320;SDS011;15376;48.540;9.268;2022-11-15T02:54:29;8.97;;;7.27;;
2320;SDS011;15376;48.540;9.268;2022-11-15T02:57:07;7.10;;;6.50;;
2320;SDS011;15376;48.540;9.268;2022-11-15T03:05:25;11.07;;;9.00;;
2320;SDS011;15376;48.540;9.268;2022-11-15T03:08:02;9.67;;;8.77;;
2320;SDS011;15376;48.540;9.268;2022-11-15T03:11:11;11.00;;;9.63;;
2320;SDS011;15376;48.540;9.268;2022-11-15T03:14:01;13.80;;;9.43;;
2320;SDS011;15376;48.540;9.268;2022-11-15T03:16:37;10.83;;;9.03;;
2320;SDS011;15376;48.540;9.268;2022-11-15T03:19:11;9.03;;;7.97;;
2320;SDS011;15376;48.540;9.268;2022-11-15T03:21:39;9.07;;;8.10;;
2320;SDS011;15376;48.540;9.268;2022-11-15T03:24:06;12.53;;;8.70;;
2320;SDS011;15376;48.540;9.268;2022-11-15T03:26:34;8.20;;;7.33;;
2320;SDS011;15376;48.540;9.268;2022-11-15T03:29:06;8.90;;;8.00;;
2320;SDS011;15376;48.540;9.268;2022-11-15T03:31:44;9.50;;;7.23;;
2320;SDS011;15376;48.540;9.268;2022-11-15T03:34:36;10.73;;;7.87;;
2320;SDS011;15376;48.540;9.268;2022-11-15T03:37:01;8.13;;;6.70;;
2320;SDS011;15376;48.540;9.268;2022-11-15T03:39:27;8.10;;;7.30;;
2320;SDS011;15376;48.540;9.268;2022-11-15T03:42:00;7.93;;;7.13;;
2320;SDS011;15376;48.540;9.268;2022-11-15T03:44:35;8.90;;;8.00;;
2320;SDS011;15376;48.540;9.268;2022-11-15T03:47:16;8.53;;;7.50;;
2320;SDS011;15376;48.540;9.268;2022-11-15T03:49:52;8.30;;;7.50;;
2320;SDS011;15376;48.540;9.268;2022-11-15T03:52:21;10.10;;;9.10;;
2320;SDS011;15376;48.540;9.268;2022-11-15T03:54:48;13.60;;;9.27;;
2320;SDS011;15376;48.540;9.268;2022-11-15T03:57:17;8.30;;;7.60;;
2320;SDS011;15376;48.540;9.268;2022-11-15T03:59:43;11.17;;;9.07;;
2320;SDS011;15376;48.540;9.268;2022-11-15T04:02:08;9.37;;;7.67;;
2320;SDS011;15376;48.540;9.268;2022-11-15T04:04:33;9.73;;;8.57;;
2320;SDS011;15376;48.540;9.268;2022-11-15T04:06:59;9.27;;;8.37;;
2320;SDS011;15376;48.540;9.268;2022-11-15T04:09:24;10.00;;;8.63;;
2320;SDS011;15376;48.540;9.268;2022-11-15T04:11:49;9.97;;;8.80;;
2320;SDS011;15376;48.540;9.268;2022-11-15T04:14:14;12.90;;;8.37;;
2320;SDS011;15376;48.540;9.268;2022-11-15T04:16:40;8.63;;;7.83;;
2320;SDS011;15376;48.540;9.268;2022-11-15T04:19:05;8.20;;;7.47;;
2320;SDS011;15376;48.540;9.268;2022-11-15T04:21:49;12.00;;;8.03;;
2320;SDS011;15376;48.540;9.268;2022-11-15T04:24:33;11.93;;;10.30;;
2320;SDS011;15376;48.540;9.268;2022-11-15T04:26:58;10.20;;;8.97;;
2320;SDS011;15376;48.540;9.268;2022-11-15T04:29:25;10.10;;;8.50;;
2320;SDS011;15376;48.540;9.268;2022-11-15T04:32:00;10.07;;;8.40;;
2320;SDS011;15376;48.540;9.268;2022-11-15T04:34:26;9.70;;;8.80;;
2320;SDS011;15376;48.540;9.268;2022-11-15T04:36:52;9.30;;;8.40;;
2320;SDS011;15376;48.540;9.268;2022-11-15T04:39:35;10.00;;;8.40;;
2320;SDS011;15376;48.540;9.268;2022-11-15T04:42:01;13.10;;;8.50;;
2320;SDS011;15376;48.540;9.268;2022-11-15T04:44:26;8.83;;;7.93;;
2320;SDS011;15376;48.540;9.268;2022-11-15T04:46:51;9.87;;;8.90;;
2320;SDS011;15376;48.540;9.268;2022-11-15T04:49:17;13.20;;;9.00;;
2320;SDS011;15376;48.540;9.268;2022-11-15T04:51:42;10.43;;;9.33;;
2320;SDS011;15376;48.540;9.268;2022-11-15T04:54:08;10.93;;;9.03;;
2320;SDS011;15376;48.540;9.268;2022-11-15T04:56:33;9.97;;;8.90;;
2320;SDS011;15376;48.540;9.268;2022-11-15T04:58:59;11.43;;;9.07;;
2320;SDS011;15376;48.540;9.268;2022-11-15T05:01:24;9.83;;;8.83;;
2320;SDS011;15376;48.540;9.268;2022-11-15T05:03:49;10.53;;;9.30;;
2320;SDS011;15376;48.540;9.268;2022-11-15T05:06:33;11.20;;;9.07;;
2320;SDS011;15376;48.540;9.268;2022-11-15T05:08:59;11.37;;;10.07;;
2320;SDS011;15376;48.540;9.268;2022-11-15T05:11:24;10.03;;;9.03;;
2320;SDS011;15376;48.540;9.268;2022-11-15T05:13:49;9.40;;;8.40;;
2320;SDS011;15376;48.540;9.268;2022-11-15T05:16:15;13.50;;;11.37;;
2320;SDS011;15376;48.540;9.268;2022-11-15T05:18:40;15.13;;;11.07;;
2320;SDS011;15376;48.540;9.268;2022-11-15T05:21:07;14.47;;;12.60;;
2320;SDS011;15376;48.540;9.268;2022-11-15T05:23:34;19.10;;;12.83;;
2320;SDS011;15376;48.540;9.268;2022-11-15T05:25:59;14.53;;;12.40;;
2320;SDS011;15376;48.540;9.268;2022-11-15T05:28:29;16.90;;;12.33;;
2320;SDS011;15376;48.540;9.268;2022-11-15T05:31:01;12.70;;;10.30;;
2320;SDS011;15376;48.540;9.268;2022-11-15T05:33:27;12.73;;;10.43;;
2320;SDS011;15376;48.540;9.268;2022-11-15T05:36:04;12.57;;;11.03;;
2320;SDS011;15376;48.540;9.268;2022-11-15T05:38:44;12.57;;;10.57;;
2320;SDS011;15376;48.540;9.268;2022-11-15T05:41:11;10.50;;;9.17;;
2320;SDS011;15376;48.540;9.268;2022-11-15T05:43:38;11.60;;;10.00;;
2320;SDS011;15376;48.540;9.268;2022-11-15T05:46:05;14.10;;;9.40;;
2320;SDS011;15376;48.540;9.268;2022-11-15T05:48:31;10.83;;;9.40;;
2320;SDS011;15376;48.540;9.268;2022-11-15T05:50:59;12.53;;;9.00;;
2320;SDS011;15376;48.540;9.268;2022-11-15T05:53:25;11.10;;;10.07;;
2320;SDS011;15376;48.540;9.268;2022-11-15T05:55:51;10.40;;;9.40;;
2320;SDS011;15376;48.540;9.268;2022-11-15T05:58:16;13.80;;;9.87;;
2320;SDS011;15376;48.540;9.268;2022-11-15T06:00:43;13.33;;;10.93;;
2320;SDS011;15376;48.540;9.268;2022-11-15T06:03:08;11.80;;;9.00;;
2320;SDS011;15376;48.540;9.268;2022-11-15T06:05:34;12.80;;;9.83;;
2320;SDS011;15376;48.540;9.268;2022-11-15T06:07:59;12.83;;;9.87;;
2320;SDS011;15376;48.540;9.268;2022-11-15T06:10:25;11.43;;;8.50;;
2320;SDS011;15376;48.540;9.268;2022-11-15T06:12:57;13.90;;;9.30;;
2320;SDS011;15376;48.540;9.268;2022-11-15T06:15:27;10.23;;;8.40;;
2320;SDS011;15376;48.540;9.268;2022-11-15T06:17:55;12.93;;;9.90;;
2320;SDS011;15376;48.540;9.268;2022-11-15T06:20:22;13.00;;;10.70;;
2320;SDS011;15376;48.540;9.268;2022-11-15T06:22:48;13.63;;;10.43;;
2320;SDS011;15376;48.540;9.268;2022-11-15T06:25:14;10.67;;;9.57;;
2320;SDS011;15376;48.540;9.268;2022-11-15T06:27:39;14.57;;;10.47;;
2320;SDS011;15376;48.540;9.268;2022-11-15T06:30:04;13.67;;;11.13;;
2320;SDS011;15376;48.540;9.268;2022-11-15T06:32:30;17.57;;;11.60;;
2320;SDS011;15376;48.540;9.268;2022-11-15T06:34:55;12.63;;;11.00;;
2320;SDS011;15376;48.540;9.268;2022-11-15T06:37:21;14.80;;;13.00;;
2320;SDS011;15376;48.540;9.268;2022-11-15T06:39:46;16.20;;;10.37;;
2320;SDS011;15376;48.540;9.268;2022-11-15T06:42:11;18.70;;;12.60;;
2320;SDS011;15376;48.540;9.268;2022-11-15T06:44:37;13.00;;;11.70;;
2320;SDS011;15376;48.540;9.268;2022-11-15T06:47:02;12.97;;;11.63;;
2320;SDS011;15376;48.540;9.268;2022-11-15T06:49:27;17.43;;;10.63;;
2320;SDS011;15376;48.540;9.268;2022-11-15T06:51:55;12.57;;;11.23;;
2320;SDS011;15376;48.540;9.268;2022-11-15T06:54:21;12.10;;;10.83;;
2320;SDS011;15376;48.540;9.268;2022-11-15T06:56:47;12.03;;;10.73;;
2320;SDS011;15376;48.540;9.268;2022-11-15T06:59:12;12.13;;;10.83;;
2320;SDS011;15376;48.540;9.268;2022-11-15T07:01:37;13.27;;;9.93;;
2320;SDS011;15376;48.540;9.268;2022-11-15T07:04:03;11.30;;;9.90;;
2320;SDS011;15376;48.540;9.268;2022-11-15T07:06:28;14.43;;;11.07;;
2320;SDS011;15376;48.540;9.268;2022-11-15T07:08:54;11.77;;;9.70;;
2320;SDS011;15376;48.540;9.268;2022-11-15T07:11:19;11.30;;;9.20;;
2320;SDS011;15376;48.540;9.268;2022-11-15T07:13:44;10.50;;;9.50;;
2320;SDS011;15376;48.540;9.268;2022-11-15T07:16:10;12.20;;;9.30;;
2320;SDS011;15376;48.540;9.268;2022-11-15T07:18:36;13.63;;;9.80;;
2320;SDS011;15376;48.540;9.268;2022-11-15T07:21:03;13.70;;;11.87;;
2320;SDS011;15376;48.540;9.268;2022-11-15T07:23:30;13.37;;;10.37;;
2320;SDS011;15376;48.540;9.268;2022-11-15T07:25:56;12.20;;;9.53;;
2320;SDS011;15376;48.540;9.268;2022-11-15T07:28:23;13.00;;;10.93;;
2320;SDS011;15376;48.540;9.268;2022-11-15T07:30:48;13.70;;;11.00;;
2320;SDS011;15376;48.540;9.268;2022-11-15T07:33:14;13.33;;;10.77;;
2320;SDS011;15376;48.540;9.268;2022-11-15T07:35:39;11.60;;;10.17;;
2320;SDS011;15376;48.540;9.268;2022-11-15T07:38:04;13.23;;;10.83;;
2320;SDS011;15376;48.540;9.268;2022-11-15T07:40:30;15.03;;;11.23;;
2320;SDS011;15376;48.540;9.268;2022-11-15T07:43:04;12.83;;;10.40;;
2320;SDS011;15376;48.540;9.268;2022-11-15T07:45:31;16.80;;;14.03;;
2320;SDS011;15376;48.540;9.268;2022-11-15T07:47:58;16.63;;;14.00;;
2320;SDS011;15376;48.540;9.268;2022-11-15T07:50:24;15.93;;;12.37;;
2320;SDS011;15376;48.540;9.268;2022-11-15T07:52:54;18.93;;;12.43;;
2320;SDS011;15376;48.540;9.268;2022-11-15T07:55:20;16.93;;;12.63;;
2320;SDS011;15376;48.540;9.268;2022-11-15T07:57:46;18.83;;;11.57;;
2320;SDS011;15376;48.540;9.268;2022-11-15T08:00:12;15.90;;;12.80;;
2320;SDS011;15376;48.540;9.268;2022-11-15T08:02:38;18.93;;;11.40;;
2320;SDS011;15376;48.540;9.268;2022-11-15T08:05:03;12.73;;;10.53;;
2320;SDS011;15376;48.540;9.268;2022-11-15T08:07:29;13.10;;;11.67;;
2320;SDS011;15376;48.540;9.268;2022-11-15T08:09:55;12.70;;;9.70;;
2320;SDS011;15376;48.540;9.268;2022-11-15T08:12:21;14.10;;;8.30;;
2320;SDS011;15376;48.540;9.268;2022-11-15T08:14:46;10.50;;;9.50;;
2320;SDS011;15376;48.540;9.268;2022-11-15T08:17:12;9.70;;;7.87;;
2320;SDS011;15376;48.540;9.268;2022-11-15T08:19:37;10.57;;;9.50;;
2320;SDS011;15376;48.540;9.268;2022-11-15T08:22:02;10.17;;;8.50;;
2320;SDS011;15376;48.540;9.268;2022-11-15T08:24:28;31.13;;;20.50;;
2320;SDS011;15376;48.540;9.268;2022-11-15T08:26:53;14.00;;;11.60;;
2320;SDS011;15376;48.540;9.268;2022-11-15T08:29:18;21.27;;;17.30;;
2320;SDS011;15376;48.540;9.268;2022-11-15T08:31:44;32.10;;;21.97;;
2320;SDS011;15376;48.540;9.268;2022-11-15T08:34:09;19.30;;;15.20;;
2320;SDS011;15376;48.540;9.268;2022-11-15T08:36:35;18.10;;;14.17;;
2320;SDS011;15376;48.540;9.268;2022-11-15T08:39:00;24.43;;;16.80;;
2320;SDS011;15376;48.540;9.268;2022-11-15T08:41:35;31.83;;;20.27;;
2320;SDS011;15376;48.540;9.268;2022-11-15T08:44:02;25.30;;;13.50;;
2320;SDS011;15376;48.540;9.268;2022-11-15T08:46:27;31.23;;;15.90;;
2320;SDS011;15376;48.540;9.268;2022-11-15T08:48:53;26.60;;;17.53;;
2320;SDS011;15376;48.540;9.268;2022-11-15T08:51:18;22.93;;;16.20;;
2320;SDS011;15376;48.540;9.268;2022-11-15T08:53:44;20.57;;;13.27;;
2320;SDS011;15376;48.540;9.268;2022-11-15T08:56:10;12.43;;;10.30;;
2320;SDS011;15376;48.540;9.268;2022-11-15T08:58:36;18.10;;;13.20;;
2320;SDS011;15376;48.540;9.268;2022-11-15T09:01:03;26.93;;;11.70;;
2320;SDS011;15376;48.540;9.268;2022-11-15T09:03:29;21.53;;;10.43;;
2320;SDS011;15376;48.540;9.268;2022-11-15T09:05:55;15.03;;;12.93;;
2320;SDS011;15376;48.540;9.268;2022-11-15T09:08:22;21.40;;;13.10;;
2320;SDS011;15376;48.540;9.268;2022-11-15T09:10:47;30.30;;;14.50;;
2320;SDS011;15376;48.540;9.268;2022-11-15T09:13:12;23.00;;;13.53;;
2320;SDS011;15376;48.540;9.268;2022-11-15T09:15:38;22.50;;;13.63;;
2320;SDS011;15376;48.540;9.268;2022-11-15T09:18:04;24.57;;;15.60;;
2320;SDS011;15376;48.540;9.268;2022-11-15T09:20:29;24.47;;;12.93;;
2320;SDS011;15376;48.540;9.268;2022-11-15T09:22:57;24.23;;;13.70;;
2320;SDS011;15376;48.540;9.268;2022-11-15T09:25:24;21.80;;;13.60;;
2320;SDS011;15376;48.540;9.268;2022-11-15T09:27:49;26.80;;;12.40;;
2320;SDS011;15376;48.540;9.268;2022-11-15T09:30:15;22.37;;;13.23;;
2320;SDS011;15376;48.540;9.268;2022-11-15T09:32:40;13.57;;;11.47;;
2320;SDS011;15376;48.540;9.268;2022-11-15T09:35:06;19.80;;;13.90;;
2320;SDS011;15376;48.540;9.268;2022-11-15T09:37:32;13.83;;;11.23;;
2320;SDS011;15376;48.540;9.268;2022-11-15T09:39:57;13.57;;;10.87;;
2320;SDS011;15376;48.540;9.268;2022-11-15T09:45:23;13.93;;;10.30;;
2320;SDS011;15376;48.540;9.268;2022-11-15T09:50:50;13.07;;;11.67;;
2320;SDS011;15376;48.540;9.268;2022-11-15T09:56:13;15.80;;;9.33;;
2320;SDS011;15376;48.540;9.268;2022-11-15T10:04:14;16.03;;;12.47;;
2320;SDS011;15376;48.540;9.268;2022-11-15T10:06:46;19.03;;;12.03;;
2320;SDS011;15376;48.540;9.268;2022-11-15T10:09:23;14.73;;;10.60;;
2320;SDS011;15376;48.540;9.268;2022-11-15T10:12:03;15.03;;;8.73;;
2320;SDS011;15376;48.540;9.268;2022-11-15T10:14:29;9.40;;;6.90;;
2320;SDS011;15376;48.540;9.268;2022-11-15T10:17:06;8.80;;;7.70;;
2320;SDS011;15376;48.540;9.268;2022-11-15T10:19:55;8.07;;;6.57;;
2320;SDS011;15376;48.540;9.268;2022-11-15T10:22:50;9.47;;;6.87;;
2320;SDS011;15376;48.540;9.268;2022-11-15T10:25:19;9.57;;;7.73;;
2320;SDS011;15376;48.540;9.268;2022-11-15T10:27:56;10.00;;;8.60;;
2320;SDS011;15376;48.540;9.268;2022-11-15T10:30:30;9.00;;;7.80;;
2320;SDS011;15376;48.540;9.268;2022-11-15T10:33:08;10.93;;;8.20;;
2320;SDS011;15376;48.540;9.268;2022-11-15T10:35:38;9.83;;;8.70;;
2320;SDS011;15376;48.540;9.268;2022-11-15T10:38:08;11.10;;;9.50;;
2320;SDS011;15376;48.540;9.268;2022-11-15T10:40:35;9.70;;;8.20;;
2320;SDS011;15376;48.540;9.268;2022-11-15T10:43:12;11.47;;;9.07;;
2320;SDS011;15376;48.540;9.268;2022-11-15T10:45:42;11.00;;;9.90;;
2320;SDS011;15376;48.540;9.268;2022-11-15T10:50:37;13.43;;;9.33;;
2320;SDS011;15376;48.540;9.268;2022-11-15T10:53:04;16.33;;;10.50;;
2320;SDS011;15376;48.540;9.268;2022-11-15T10:55:42;11.97;;;10.37;;
2320;SDS011;15376;48.540;9.268;2022-11-15T11:01:12;9.37;;;7.73;;
2320;SDS011;15376;48.540;9.268;2022-11-15T11:03:40;14.83;;;10.47;;
2320;SDS011;15376;48.540;9.268;2022-11-15T11:06:08;9.57;;;7.20;;
2320;SDS011;15376;48.540;9.268;2022-11-15T11:08:39;7.60;;;6.33;;
2320;SDS011;15376;48.540;9.268;2022-11-15T11:11:05;7.67;;;6.90;;
2320;SDS011;15376;48.540;9.268;2022-11-15T11:13:36;7.80;;;7.00;;
2320;SDS011;15376;48.540;9.268;2022-11-15T11:21:46;11.73;;;7.97;;
2320;SDS011;15376;48.540;9.268;2022-11-15T11:24:22;6.60;;;5.90;;
2320;SDS011;15376;48.540;9.268;2022-11-15T11:27:16;6.87;;;5.60;;
2320;SDS011;15376;48.540;9.268;2022-11-15T11:36:03;5.17;;;4.40;;
2320;SDS011;15376;48.540;9.268;2022-11-15T11:48:44;6.07;;;4.40;;
2320;SDS011;15376;48.540;9.268;2022-11-15T11:51:27;13.90;;;9.83;;
2320;SDS011;15376;48.540;9.268;2022-11-15T11:54:03;9.03;;;5.60;;
2320;SDS011;15376;48.540;9.268;2022-11-15T11:56:37;7.60;;;4.67;;
2320;SDS011;15376;48.540;9.268;2022-11-15T12:01:46;5.10;;;4.47;;
2320;SDS011;15376;48.540;9.268;2022-11-15T12:04:14;5.67;;;5.17;;
2320;SDS011;15376;48.540;9.268;2022-11-15T12:06:51;7.47;;;4.73;;
2320;SDS011;15376;48.540;9.268;2022-11-15T12:09:24;4.60;;;4.20;;
2320;SDS011;15376;48.540;9.268;2022-11-15T12:12:18;5.70;;;5.10;;
2320;SDS011;15376;48.540;9.268;2022-11-15T12:17:34;4.43;;;4.00;;
2320;SDS011;15376;48.540;9.268;2022-11-15T12:20:06;7.33;;;5.27;;
2320;SDS011;15376;48.540;9.268;2022-11-15T12:22:42;5.77;;;5.17;;
2320;SDS011;15376;48.540;9.268;2022-11-15T12:25:23;4.00;;;3.60;;
2320;SDS011;15376;48.540;9.268;2022-11-15T12:30:38;4.30;;;3.90;;
2320;SDS011;15376;48.540;9.268;2022-11-15T12:33:31;5.83;;;4.37;;
2320;SDS011;15376;48.540;9.268;2022-11-15T12:35:59;4.80;;;3.50;;
2320;SDS011;15376;48.540;9.268;2022-11-15T12:41:18;5.83;;;3.67;;
2320;SDS011;15376;48.540;9.268;2022-11-15T12:43:44;5.60;;;4.10;;
2320;SDS011;15376;48.540;9.268;2022-11-15T13:02:36;6.60;;;3.80;;
2320;SDS011;15376;48.540;9.268;2022-11-15T13:17:47;4.40;;;4.00;;
2320;SDS011;15376;48.540;9.268;2022-11-15T13:22:49;6.40;;;4.17;;
2320;SDS011;15376;48.540;9.268;2022-11-15T13:30:39;9.43;;;6.27;;
2320;SDS011;15376;48.540;9.268;2022-11-15T13:33:10;8.70;;;6.03;;
2320;SDS011;15376;48.540;9.268;2022-11-15T13:35:41;7.07;;;6.17;;
2320;SDS011;15376;48.540;9.268;2022-11-15T13:38:12;8.23;;;5.93;;
2320;SDS011;15376;48.540;9.268;2022-11-15T13:40:52;5.37;;;4.87;;
2320;SDS011;15376;48.540;9.268;2022-11-15T13:48:41;7.40;;;6.63;;
2320;SDS011;15376;48.540;9.268;2022-11-15T13:51:53;7.73;;;6.03;;
2320;SDS011;15376;48.540;9.268;2022-11-15T13:54:22;8.97;;;6.80;;
2320;SDS011;15376;48.540;9.268;2022-11-15T13:59:47;9.50;;;5.70;;
2320;SDS011;15376;48.540;9.268;2022-11-15T14:02:17;9.17;;;6.00;;
2320;SDS011;15376;48.540;9.268;2022-11-15T14:04:49;6.47;;;5.70;;
2320;SDS011;15376;48.540;9.268;2022-11-15T14:07:35;10.00;;;7.27;;
2320;SDS011;15376;48.540;9.268;2022-11-15T14:10:16;8.53;;;6.63;;
2320;SDS011;15376;48.540;9.268;2022-11-15T14:12:56;7.17;;;6.40;;
2320;SDS011;15376;48.540;9.268;2022-11-15T14:15:40;9.50;;;6.83;;
2320;SDS011;15376;48.540;9.268;2022-11-15T14:18:06;9.50;;;6.70;;
2320;SDS011;15376;48.540;9.268;2022-11-15T14:20:35;9.33;;;7.40;;
2320;SDS011;15376;48.540;9.268;2022-11-15T14:23:04;13.17;;;8.37;;
2320;SDS011;15376;48.540;9.268;2022-11-15T14:25:54;11.50;;;7.70;;
2320;SDS011;15376;48.540;9.268;2022-11-15T14:30:49;12.53;;;7.40;;
2320;SDS011;15376;48.540;9.268;2022-11-15T14:33:20;14.30;;;7.80;;
2320;SDS011;15376;48.540;9.268;2022-11-15T14:35:46;11.10;;;8.13;;
2320;SDS011;15376;48.540;9.268;2022-11-15T14:38:11;13.20;;;9.90;;
2320;SDS011;15376;48.540;9.268;2022-11-15T14:40:37;10.03;;;7.60;;
2320;SDS011;15376;48.540;9.268;2022-11-15T14:43:02;10.93;;;8.53;;
2320;SDS011;15376;48.540;9.268;2022-11-15T14:45:28;12.10;;;7.77;;
2320;SDS011;15376;48.540;9.268;2022-11-15T14:47:53;10.50;;;7.17;;
2320;SDS011;15376;48.540;9.268;2022-11-15T14:50:20;10.93;;;6.90;;
2320;SDS011;15376;48.540;9.268;2022-11-15T14:52:46;12.90;;;9.97;;
2320;SDS011;15376;48.540;9.268;2022-11-15T14:57:48;8.40;;;6.80;;
2320;SDS011;15376;48.540;9.268;2022-11-15T15:00:14;7.97;;;6.77;;
2320;SDS011;15376;48.540;9.268;2022-11-15T15:02:41;11.40;;;7.33;;
2320;SDS011;15376;48.540;9.268;2022-11-15T15:05:12;9.13;;;6.53;;
2320;SDS011;15376;48.540;9.268;2022-11-15T15:07:38;6.60;;;5.97;;
2320;SDS011;15376;48.540;9.268;2022-11-15T15:10:04;14.40;;;7.83;;
2320;SDS011;15376;48.540;9.268;2022-11-15T15:12:30;7.13;;;5.90;;
2320;SDS011;15376;48.540;9.268;2022-11-15T15:14:55;9.03;;;7.17;;
2320;SDS011;15376;48.540;9.268;2022-11-15T15:17:21;7.60;;;6.37;;
2320;SDS011;15376;48.540;9.268;2022-11-15T15:19:46;7.40;;;6.40;;
2320;SDS011;15376;48.540;9.268;2022-11-15T15:22:13;9.27;;;7.10;;
2320;SDS011;15376;48.540;9.268;2022-11-15T15:24:40;10.30;;;7.37;;
2320;SDS011;15376;48.540;9.268;2022-11-15T15:27:06;9.77;;;7.57;;
2320;SDS011;15376;48.540;9.268;2022-11-15T15:29:32;14.40;;;9.53;;
2320;SDS011;15376;48.540;9.268;2022-11-15T15:31:57;11.20;;;9.80;;
2320;SDS011;15376;48.540;9.268;2022-11-15T15:34:22;11.83;;;9.50;;
2320;SDS011;15376;48.540;9.268;2022-11-15T15:36:48;16.70;;;12.67;;
2320;SDS011;15376;48.540;9.268;2022-11-15T15:39:13;14.17;;;10.50;;
2320;SDS011;15376;48.540;9.268;2022-11-15T15:41:39;16.00;;;12.83;;
2320;SDS011;15376;48.540;9.268;2022-11-15T15:44:04;11.03;;;9.07;;
2320;SDS011;15376;48.540;9.268;2022-11-15T15:46:29;14.50;;;10.70;;
2320;SDS011;15376;48.540;9.268;2022-11-15T15:48:55;14.20;;;10.53;;
2320;SDS011;15376;48.540;9.268;2022-11-15T15:51:20;11.00;;;9.90;;
2320;SDS011;15376;48.540;9.268;2022-11-15T15:53:46;12.43;;;9.63;;
2320;SDS011;15376;48.540;9.268;2022-11-15T15:56:12;12.40;;;9.27;;
2320;SDS011;15376;48.540;9.268;2022-11-15T15:58:37;14.40;;;9.87;;
2320;SDS011;15376;48.540;9.268;2022-11-15T16:01:03;13.40;;;9.87;;
2320;SDS011;15376;48.540;9.268;2022-11-15T16:03:28;15.90;;;13.03;;
2320;SDS011;15376;48.540;9.268;2022-11-15T16:05:53;16.30;;;12.10;;
2320;SDS011;15376;48.540;9.268;2022-11-15T16:08:22;15.77;;;11.57;;
2320;SDS011;15376;48.540;9.268;2022-11-15T16:10:49;11.50;;;8.27;;
2320;SDS011;15376;48.540;9.268;2022-11-15T16:13:15;16.20;;;13.17;;
2320;SDS011;15376;48.540;9.268;2022-11-15T16:15:40;11.83;;;8.57;;
2320;SDS011;15376;48.540;9.268;2022-11-15T16:18:08;12.70;;;9.80;;
2320;SDS011;15376;48.540;9.268;2022-11-15T16:20:40;12.67;;;9.30;;
2320;SDS011;15376;48.540;9.268;2022-11-15T16:23:10;22.80;;;16.73;;
2320;SDS011;15376;48.540;9.268;2022-11-15T16:25:41;13.60;;;10.50;;
2320;SDS011;15376;48.540;9.268;2022-11-15T16:28:17;13.57;;;10.80;;
2320;SDS011;15376;48.540;9.268;2022-11-15T16:30:48;11.47;;;9.90;;
2320;SDS011;15376;48.540;9.268;2022-11-15T16:33:14;13.03;;;11.60;;
2320;SDS011;15376;48.540;9.268;2022-11-15T16:35:42;19.30;;;12.60;;
2320;SDS011;15376;48.540;9.268;2022-11-15T16:38:11;15.13;;;11.53;;
2320;SDS011;15376;48.540;9.268;2022-11-15T16:40:39;11.27;;;10.17;;
2320;SDS011;15376;48.540;9.268;2022-11-15T16:43:05;17.33;;;14.23;;
2320;SDS011;15376;48.540;9.268;2022-11-15T16:45:30;15.33;;;11.77;;
2320;SDS011;15376;48.540;9.268;2022-11-15T16:47:58;25.27;;;22.00;;
2320;SDS011;15376;48.540;9.268;2022-11-15T16:50:25;16.90;;;15.10;;
2320;SDS011;15376;48.540;9.268;2022-11-15T16:52:52;12.90;;;11.67;;
2320;SDS011;15376;48.540;9.268;2022-11-15T16:55:20;12.97;;;11.30;;
2320;SDS011;15376;48.540;9.268;2022-11-15T16:57:46;13.13;;;11.33;;
2320;SDS011;15376;48.540;9.268;2022-11-15T17:00:11;17.20;;;12.13;;